Time;durP1;ratioP1;P1;durP2;ratioP2;P2;SDS_P1;SDS_P2;PMS_P1;PMS_P2;Temp;Humidity;BMP_temperature;BMP_pressure;BME280_temperature;BME280_humidity;BME280_pressure;Samples;Min_cycle;Max_cycle;Signal;HPM_P1;HPM_P2
2024/01/07 00:00:53;;;;;;;5.57;2.20;;;;;;;;;;4995560;28;95246;-82
2024/01/07 00:03:19;;;;;;;5.07;2.20;;;;;;;;;;4980930;28;93207;-82
2024/01/07 00:05:47;;;;;;;5.90;2.15;;;;;;;;;;4981012;28;94581;-82
2024/01/07 00:08:13;;;;;;;4.78;2.13;;;;;;;;;;4982367;28;92780;-82
2024/01/07 00:10:40;;;;;;;3.97;2.15;;;;;;;;;;4983005;28;91636;-82
2024/01/07 00:13:07;;;;;;;5.38;2.30;;;;;;;;;;4982381;28;92056;-82
2024/01/07 00:15:34;;;;;;;5.40;2.08;;;;;;;;;;4983786;28;95379;-82
2024/01/07 00:18:01;;;;;;;5.60;2.30;;;;;;;;;;4980864;28;94585;-81
2024/01/07 00:20:27;;;;;;;7.50;2.20;;;;;;;;;;4963249;28;94557;-81
2024/01/07 00:22:54;;;;;;;5.38;2.05;;;;;;;;;;4981005;28;92359;-83
2024/01/07 00:25:21;;;;;;;4.70;2.10;;;;;;;;;;4981717;28;92784;-81
2024/01/07 00:27:50;;;;;;;4.75;2.10;;;;;;;;;;4980413;28;94922;-81
2024/01/07 00:30:18;;;;;;;4.90;2.08;;;;;;;;;;4959574;28;92582;-80
2024/01/07 00:32:44;;;;;;;;;;;;;;;;;;4945120;28;94983;-82
2024/01/07 00:35:11;;;;;;;4.75;2.03;;;;;;;;;;4965657;28;91622;-81
2024/01/07 00:37:38;;;;;;;6.60;2.30;;;;;;;;;;4966954;28;92866;-82
2024/01/07 00:40:05;;;;;;;5.82;2.30;;;;;;;;;;4979864;28;95709;-81
2024/01/07 00:42:31;;;;;;;5.38;2.30;;;;;;;;;;4961469;28;95023;-81
2024/01/07 00:44:58;;;;;;;4.55;1.98;;;;;;;;;;4981606;28;94947;-80
2024/01/07 00:47:25;;;;;;;5.53;1.92;;;;;;;;;;4980065;28;93353;-82
2024/01/07 00:49:52;;;;;;;5.00;2.10;;;;;;;;;;4979975;28;92186;-82
2024/01/07 00:52:18;;;;;;;5.60;2.10;;;;;;;;;;4979503;28;92842;-82
2024/01/07 00:54:45;;;;;;;4.43;2.08;;;;;;;;;;4979925;28;94730;-82
2024/01/07 00:57:15;;;;;;;4.97;2.17;;;;;;;;;;4963697;28;92094;-81
2024/01/07 00:59:41;;;;;;;15.50;2.17;;;;;;;;;;4984946;28;92744;-82
2024/01/07 01:02:08;;;;;;;5.00;2.00;;;;;;;;;;4979017;28;92196;-82
2024/01/07 01:04:37;;;;;;;7.95;2.47;;;;;;;;;;4979279;28;95379;-82
2024/01/07 01:07:04;;;;;;;6.13;2.00;;;;;;;;;;4961618;28;97542;-82
2024/01/07 01:09:31;;;;;;;5.93;2.10;;;;;;;;;;4981556;28;92270;-81
2024/01/07 01:11:58;;;;;;;4.80;2.00;;;;;;;;;;4981040;28;92395;-83
2024/01/07 01:14:25;;;;;;;5.00;2.20;;;;;;;;;;4994704;28;95655;-81
2024/01/07 01:16:51;;;;;;;4.45;1.90;;;;;;;;;;4979993;28;92365;-82
2024/01/07 01:19:18;;;;;;;5.82;2.05;;;;;;;;;;4980206;28;95255;-82
2024/01/07 01:21:44;;;;;;;5.35;1.92;;;;;;;;;;4984365;28;93028;-82
2024/01/07 01:24:12;;;;;;;3.97;1.90;;;;;;;;;;4982199;28;92799;-83
2024/01/07 01:26:39;;;;;;;3.60;1.92;;;;;;;;;;4979098;28;97626;-82
2024/01/07 01:29:05;;;;;;;5.82;2.38;;;;;;;;;;4980406;28;92320;-82
2024/01/07 01:31:32;;;;;;;4.65;2.00;;;;;;;;;;4961883;28;94691;-83
2024/01/07 01:33:59;;;;;;;4.47;2.03;;;;;;;;;;4980419;28;95559;-82
2024/01/07 01:36:26;;;;;;;4.18;1.92;;;;;;;;;;4961663;28;92174;-84
2024/01/07 01:38:52;;;;;;;4.78;2.10;;;;;;;;;;4970165;28;94713;-83
2024/01/07 01:41:19;;;;;;;4.45;2.13;;;;;;;;;;4979497;28;95940;-84
2024/01/07 01:43:46;;;;;;;4.97;1.80;;;;;;;;;;4966766;28;92426;-82
2024/01/07 01:46:13;;;;;;;5.05;2.00;;;;;;;;;;4979080;28;95206;-83
2024/01/07 01:48:40;;;;;;;6.90;2.10;;;;;;;;;;4981966;28;91853;-84
2024/01/07 01:51:07;;;;;;;5.22;2.03;;;;;;;;;;4979858;28;93726;-83
2024/01/07 01:53:34;;;;;;;4.38;1.83;;;;;;;;;;4980907;28;92906;-84
2024/01/07 01:56:02;;;;;;;4.03;1.92;;;;;;;;;;4962179;28;94995;-84
2024/01/07 01:58:29;;;;;;;5.03;2.20;;;;;;;;;;4980809;28;95629;-84
2024/01/07 02:00:56;;;;;;;4.60;1.80;;;;;;;;;;4979609;28;95418;-84
2024/01/07 02:03:25;;;;;;;5.00;2.15;;;;;;;;;;4984634;28;92039;-84
2024/01/07 02:05:52;;;;;;;5.38;2.25;;;;;;;;;;4979938;28;95787;-84
2024/01/07 02:08:20;;;;;;;5.00;2.22;;;;;;;;;;4962917;28;92253;-84
2024/01/07 02:10:47;;;;;;;6.07;2.10;;;;;;;;;;4979556;28;94855;-81
2024/01/07 02:13:14;;;;;;;4.97;2.03;;;;;;;;;;4982923;28;92697;-81
2024/01/07 02:15:40;;;;;;;5.22;2.00;;;;;;;;;;4984174;28;92099;-82
2024/01/07 02:18:07;;;;;;;5.68;2.00;;;;;;;;;;4982520;28;94909;-83
2024/01/07 02:20:35;;;;;;;4.32;2.00;;;;;;;;;;4980512;28;98927;-82
2024/01/07 02:23:02;;;;;;;5.80;2.33;;;;;;;;;;4982372;28;92152;-83
2024/01/07 02:25:29;;;;;;;6.07;2.17;;;;;;;;;;4985756;28;94813;-82
2024/01/07 02:27:56;;;;;;;9.55;2.17;;;;;;;;;;4966178;28;92157;-82
2024/01/07 02:30:23;;;;;;;5.20;2.20;;;;;;;;;;4981728;28;94835;-83
2024/01/07 02:32:49;;;;;;;4.13;2.00;;;;;;;;;;4984006;28;93536;-84
2024/01/07 02:35:16;;;;;;;6.35;2.38;;;;;;;;;;4982113;28;92090;-81
2024/01/07 02:37:43;;;;;;;5.10;2.10;;;;;;;;;;4982414;28;95735;-82
2024/01/07 02:40:10;;;;;;;6.13;2.10;;;;;;;;;;4966032;28;95056;-84
2024/01/07 02:42:37;;;;;;;4.35;2.33;;;;;;;;;;4981331;28;92114;-83
2024/01/07 02:45:06;;;;;;;5.10;2.30;;;;;;;;;;4982123;28;94539;-82
2024/01/07 02:47:33;;;;;;;5.47;2.40;;;;;;;;;;4984820;28;93158;-83
2024/01/07 02:50:03;;;;;;;7.40;2.38;;;;;;;;;;4983544;28;93605;-82
2024/01/07 02:52:30;;;;;;;4.50;2.03;;;;;;;;;;4982011;28;92737;-84
2024/01/07 02:54:57;;;;;;;7.65;2.47;;;;;;;;;;4966429;28;92177;-86
2024/01/07 02:57:24;;;;;;;10.23;2.67;;;;;;;;;;4982411;28;94593;-83
2024/01/07 02:59:50;;;;;;;8.48;2.75;;;;;;;;;;4983585;28;93248;-83
2024/01/07 03:02:17;;;;;;;9.10;3.55;;;;;;;;;;4965890;28;91348;-83
2024/01/07 03:04:44;;;;;;;8.10;3.22;;;;;;;;;;4980996;28;92113;-83
2024/01/07 03:07:10;;;;;;;7.10;3.22;;;;;;;;;;4982309;28;92781;-84
2024/01/07 03:09:37;;;;;;;10.57;3.90;;;;;;;;;;4983575;28;94751;-83
2024/01/07 03:12:04;;;;;;;9.20;4.00;;;;;;;;;;4966047;28;100361;-83
2024/01/07 03:14:30;;;;;;;7.35;3.60;;;;;;;;;;4982644;28;92372;-83
2024/01/07 03:16:57;;;;;;;7.80;3.75;;;;;;;;;;4982040;28;92393;-84
2024/01/07 03:19:23;;;;;;;9.32;4.20;;;;;;;;;;4980923;28;95740;-82
2024/01/07 03:21:50;;;;;;;8.13;3.92;;;;;;;;;;4982517;28;92479;-83
2024/01/07 03:24:17;;;;;;;7.90;3.90;;;;;;;;;;4964075;28;95847;-82
2024/01/07 03:26:43;;;;;;;7.88;4.15;;;;;;;;;;4965748;28;94373;-82
2024/01/07 03:29:10;;;;;;;8.80;3.97;;;;;;;;;;4982024;28;92119;-82
2024/01/07 03:31:37;;;;;;;8.35;4.22;;;;;;;;;;4997869;28;93034;-82
2024/01/07 03:34:03;;;;;;;9.75;4.78;;;;;;;;;;4981089;28;94362;-82
2024/01/07 03:36:30;;;;;;;9.13;4.28;;;;;;;;;;4980456;28;97175;-82
2024/01/07 03:38:56;;;;;;;8.98;4.45;;;;;;;;;;4968657;28;95162;-82
2024/01/07 03:41:23;;;;;;;9.05;4.40;;;;;;;;;;4945427;28;92238;-84
2024/01/07 03:43:50;;;;;;;9.13;4.50;;;;;;;;;;4961939;28;95328;-83
2024/01/07 03:46:17;;;;;;;7.88;4.35;;;;;;;;;;4968410;28;92854;-84
2024/01/07 03:48:44;;;;;;;8.95;4.22;;;;;;;;;;4964853;28;92110;-84
2024/01/07 03:51:11;;;;;;;9.27;4.47;;;;;;;;;;4968458;28;95317;-83
2024/01/07 03:53:37;;;;;;;9.43;4.03;;;;;;;;;;4980995;28;92828;-82
2024/01/07 03:56:04;;;;;;;9.57;4.45;;;;;;;;;;4982926;28;92743;-83
2024/01/07 03:58:31;;;;;;;8.75;4.57;;;;;;;;;;4978903;28;95429;-83
2024/01/07 04:00:58;;;;;;;10.90;4.35;;;;;;;;;;4980612;28;92156;-83
2024/01/07 04:03:25;;;;;;;8.70;4.55;;;;;;;;;;4982717;28;92712;-82
2024/01/07 04:05:51;;;;;;;9.93;5.00;;;;;;;;;;4980722;28;95157;-84
2024/01/07 04:08:18;;;;;;;12.32;5.22;;;;;;;;;;4980362;28;92138;-86
2024/01/07 04:10:44;;;;;;;9.73;5.03;;;;;;;;;;4982235;28;92592;-83
2024/01/07 04:13:11;;;;;;;8.95;4.65;;;;;;;;;;4985384;28;93007;-83
2024/01/07 04:15:38;;;;;;;9.63;5.15;;;;;;;;;;4981110;28;92542;-83
2024/01/07 04:18:04;;;;;;;10.02;5.00;;;;;;;;;;4982486;28;92800;-83
2024/01/07 04:20:31;;;;;;;9.13;4.70;;;;;;;;;;4980989;28;92074;-83
2024/01/07 04:22:58;;;;;;;9.77;4.65;;;;;;;;;;4978969;28;95273;-83
2024/01/07 04:25:25;;;;;;;9.32;4.68;;;;;;;;;;4981737;28;93064;-83
2024/01/07 04:27:51;;;;;;;8.57;4.32;;;;;;;;;;4980056;28;92250;-83
2024/01/07 04:30:18;;;;;;;9.43;5.00;;;;;;;;;;4986645;27;94536;-82
2024/01/07 04:32:45;;;;;;;9.65;4.75;;;;;;;;;;4988782;28;92668;-82
2024/01/07 04:35:12;;;;;;;9.30;4.72;;;;;;;;;;4974748;28;92611;-83
2024/01/07 04:37:38;;;;;;;9.35;4.70;;;;;;;;;;4960444;28;95194;-83
2024/01/07 04:40:05;;;;;;;9.25;4.78;;;;;;;;;;4964380;28;91476;-82
2024/01/07 04:42:32;;;;;;;9.27;4.82;;;;;;;;;;4980553;28;92681;-84
2024/01/07 04:44:59;;;;;;;9.13;4.80;;;;;;;;;;4980042;28;92963;-85
2024/01/07 04:47:35;;;;;;;9.68;5.00;;;;;;;;;;4978580;28;94479;-84
2024/01/07 04:50:02;;;;;;;9.60;5.00;;;;;;;;;;4979255;28;95248;-86
2024/01/07 04:52:29;;;;;;;11.38;4.88;;;;;;;;;;4980759;28;92792;-84
2024/01/07 04:54:56;;;;;;;10.38;4.88;;;;;;;;;;4962933;28;92196;-83
2024/01/07 04:57:23;;;;;;;12.73;4.85;;;;;;;;;;4981966;28;94920;-83
2024/01/07 04:59:50;;;;;;;8.88;4.78;;;;;;;;;;4979582;28;92470;-83
2024/01/07 05:02:16;;;;;;;8.93;5.05;;;;;;;;;;4961759;28;94653;-83
2024/01/07 05:04:43;;;;;;;8.75;4.63;;;;;;;;;;4980933;28;91319;-85
2024/01/07 05:07:10;;;;;;;9.80;4.68;;;;;;;;;;4964217;28;92484;-86
2024/01/07 05:09:37;;;;;;;10.07;5.03;;;;;;;;;;4982025;28;92956;-85
2024/01/07 05:12:05;;;;;;;9.77;4.68;;;;;;;;;;4978051;28;97346;-86
2024/01/07 05:14:31;;;;;;;10.23;4.68;;;;;;;;;;4979398;28;92401;-85
2024/01/07 05:16:58;;;;;;;8.70;4.55;;;;;;;;;;4980813;28;92448;-86
2024/01/07 05:19:24;;;;;;;9.65;4.90;;;;;;;;;;4982585;28;93060;-85
2024/01/07 05:21:51;;;;;;;8.80;4.93;;;;;;;;;;4981146;28;92426;-85
2024/01/07 05:24:18;;;;;;;14.20;4.70;;;;;;;;;;4979708;28;92704;-84
2024/01/07 05:26:45;;;;;;;9.52;4.93;;;;;;;;;;4979872;28;92564;-84
2024/01/07 05:29:14;;;;;;;9.52;4.82;;;;;;;;;;4980466;28;91865;-85
2024/01/07 05:31:41;;;;;;;12.32;4.72;;;;;;;;;;4997877;28;95025;-84
2024/01/07 05:34:08;;;;;;;9.13;4.93;;;;;;;;;;4999522;28;92556;-84
2024/01/07 05:36:34;;;;;;;8.50;4.40;;;;;;;;;;4959037;28;94829;-84
2024/01/07 05:39:01;;;;;;;9.80;4.65;;;;;;;;;;4969288;28;92398;-83
2024/01/07 05:41:28;;;;;;;8.85;4.15;;;;;;;;;;4966059;28;92577;-85
2024/01/07 05:43:54;;;;;;;8.77;4.32;;;;;;;;;;4980961;28;92817;-84
2024/01/07 05:46:21;;;;;;;8.52;4.15;;;;;;;;;;4962726;28;92190;-84
2024/01/07 05:48:48;;;;;;;8.05;4.30;;;;;;;;;;4966542;28;94556;-83
2024/01/07 05:51:15;;;;;;;8.90;4.03;;;;;;;;;;4966154;28;95042;-83
2024/01/07 05:53:44;;;;;;;9.75;4.50;;;;;;;;;;4983631;28;91506;-84
2024/01/07 05:56:11;;;;;;;8.32;4.68;;;;;;;;;;4966325;28;94149;-84
2024/01/07 05:58:37;;;;;;;7.93;4.13;;;;;;;;;;4981674;28;92847;-83
2024/01/07 06:01:04;;;;;;;10.23;4.40;;;;;;;;;;4984270;28;94764;-83
2024/01/07 06:03:31;;;;;;;9.05;4.57;;;;;;;;;;4981961;28;95332;-84
2024/01/07 06:05:58;;;;;;;8.18;4.30;;;;;;;;;;4983144;28;92283;-84
2024/01/07 06:08:26;;;;;;;8.27;4.10;;;;;;;;;;4981939;28;94942;-84
2024/01/07 06:10:52;;;;;;;9.27;4.68;;;;;;;;;;4983542;28;93173;-83
2024/01/07 06:13:19;;;;;;;8.88;4.40;;;;;;;;;;4981732;28;100289;-84
2024/01/07 06:15:45;;;;;;;8.52;4.30;;;;;;;;;;4965771;28;94695;-83
2024/01/07 06:18:12;;;;;;;8.73;4.10;;;;;;;;;;4982795;28;92323;-83
2024/01/07 06:20:39;;;;;;;7.93;4.18;;;;;;;;;;4981518;28;93760;-85
2024/01/07 06:23:06;;;;;;;7.63;4.15;;;;;;;;;;4985281;28;92488;-85
2024/01/07 06:25:35;;;;;;;7.57;3.60;;;;;;;;;;4980549;28;94505;-85
2024/01/07 06:28:02;;;;;;;8.55;4.18;;;;;;;;;;4965529;28;97636;-82
2024/01/07 06:30:29;;;;;;;8.45;4.30;;;;;;;;;;4980386;28;95758;-82
2024/01/07 06:32:55;;;;;;;9.35;4.30;;;;;;;;;;4982035;28;92573;-83
2024/01/07 06:35:22;;;;;;;8.38;4.05;;;;;;;;;;4966792;28;95094;-83
2024/01/07 06:37:49;;;;;;;8.05;4.15;;;;;;;;;;4963411;28;95074;-84
2024/01/07 06:40:15;;;;;;;8.02;4.05;;;;;;;;;;4980554;28;92353;-84
2024/01/07 06:42:43;;;;;;;8.57;4.10;;;;;;;;;;4965510;28;94520;-84
2024/01/07 06:45:10;;;;;;;8.80;4.25;;;;;;;;;;4983502;28;94563;-83
2024/01/07 06:47:37;;;;;;;10.70;4.25;;;;;;;;;;4982028;28;92083;-86
2024/01/07 06:50:04;;;;;;;9.50;4.30;;;;;;;;;;4979892;28;97281;-85
2024/01/07 06:52:31;;;;;;;8.15;4.00;;;;;;;;;;4965344;28;92058;-85
2024/01/07 06:54:58;;;;;;;8.55;4.30;;;;;;;;;;4981819;28;92322;-85
2024/01/07 06:57:24;;;;;;;9.43;4.22;;;;;;;;;;4981965;28;92778;-85
2024/01/07 06:59:51;;;;;;;8.90;4.03;;;;;;;;;;4981517;28;92084;-84
2024/01/07 07:02:19;;;;;;;8.35;4.13;;;;;;;;;;4981817;28;93142;-86
2024/01/07 07:04:47;;;;;;;9.02;4.00;;;;;;;;;;4982941;28;92856;-86
2024/01/07 07:07:17;;;;;;;8.18;3.78;;;;;;;;;;4986956;28;91355;-85
2024/01/07 07:09:43;;;;;;;9.38;4.38;;;;;;;;;;4983329;28;93417;-85
2024/01/07 07:12:12;;;;;;;8.77;4.32;;;;;;;;;;4981953;28;92471;-84
2024/01/07 07:14:38;;;;;;;8.55;4.22;;;;;;;;;;4979503;28;94821;-84
2024/01/07 07:17:05;;;;;;;7.75;3.83;;;;;;;;;;4983929;28;92760;-83
2024/01/07 07:19:32;;;;;;;7.72;4.13;;;;;;;;;;4982883;28;92335;-84
2024/01/07 07:21:58;;;;;;;9.00;4.22;;;;;;;;;;4965492;28;95119;-85
2024/01/07 07:24:25;;;;;;;7.80;3.95;;;;;;;;;;5000783;27;94963;-85
2024/01/07 07:26:52;;;;;;;7.50;3.80;;;;;;;;;;5002804;27;92070;-85
2024/01/07 07:29:18;;;;;;;9.20;3.83;;;;;;;;;;5003777;28;94111;-85
2024/01/07 07:31:45;;;;;;;7.30;4.13;;;;;;;;;;4973324;28;91452;-85
2024/01/07 07:34:12;;;;;;;8.90;4.18;;;;;;;;;;4980952;28;92117;-85
2024/01/07 07:36:40;;;;;;;8.70;3.83;;;;;;;;;;4980269;28;96804;-84
2024/01/07 07:39:09;;;;;;;7.85;3.97;;;;;;;;;;4980071;28;94581;-84
2024/01/07 07:41:35;;;;;;;9.07;4.07;;;;;;;;;;4964564;28;97031;-84
2024/01/07 07:44:03;;;;;;;9.00;4.43;;;;;;;;;;4982061;28;92782;-83
2024/01/07 07:46:29;;;;;;;;;;;;;;;;;;4964321;28;92193;-84
2024/01/07 07:48:56;;;;;;;7.28;3.70;;;;;;;;;;4981890;28;114959;-84
2024/01/07 07:51:23;;;;;;;8.73;4.18;;;;;;;;;;4983615;28;95112;-84
2024/01/07 07:53:49;;;;;;;9.10;3.80;;;;;;;;;;4982694;28;92500;-84
2024/01/07 07:56:16;;;;;;;8.55;4.18;;;;;;;;;;4980080;28;94911;-83
2024/01/07 07:58:43;;;;;;;8.50;3.90;;;;;;;;;;4964681;28;92436;-83
2024/01/07 08:01:09;;;;;;;8.35;4.25;;;;;;;;;;4983368;28;92960;-82
2024/01/07 08:03:36;;;;;;;12.90;3.97;;;;;;;;;;4980097;28;95286;-82
2024/01/07 08:06:03;;;;;;;8.18;4.00;;;;;;;;;;4980682;28;92157;-81
2024/01/07 08:08:30;;;;;;;8.30;3.97;;;;;;;;;;4979387;28;95219;-83
2024/01/07 08:10:56;;;;;;;9.02;4.30;;;;;;;;;;4983315;28;94854;-82
2024/01/07 08:13:23;;;;;;;8.60;4.30;;;;;;;;;;4963420;28;94928;-82
2024/01/07 08:15:49;;;;;;;8.30;4.15;;;;;;;;;;4967454;28;95381;-83
2024/01/07 08:18:17;;;;;;;8.32;3.97;;;;;;;;;;4978469;28;92018;-82
2024/01/07 08:20:44;;;;;;;8.02;3.80;;;;;;;;;;4982546;28;93610;-84
2024/01/07 08:23:11;;;;;;;8.65;4.20;;;;;;;;;;4981883;28;93352;-84
2024/01/07 08:25:38;;;;;;;7.32;3.70;;;;;;;;;;4980278;28;92584;-84
2024/01/07 08:28:04;;;;;;;9.45;4.13;;;;;;;;;;4979429;28;95119;-85
2024/01/07 08:30:31;;;;;;;8.00;4.03;;;;;;;;;;4980128;28;95384;-85
2024/01/07 08:32:58;;;;;;;9.13;3.75;;;;;;;;;;4984398;28;92395;-85
2024/01/07 08:35:25;;;;;;;7.07;3.63;;;;;;;;;;4971366;28;94870;-85
2024/01/07 08:37:53;;;;;;;7.68;3.85;;;;;;;;;;4946843;28;92610;-84
2024/01/07 08:40:20;;;;;;;6.95;3.60;;;;;;;;;;4980859;28;92805;-82
2024/01/07 08:42:47;;;;;;;10.35;4.00;;;;;;;;;;4963095;28;92455;-82
2024/01/07 08:45:14;;;;;;;9.40;3.33;;;;;;;;;;4979714;28;91727;-81
2024/01/07 08:47:41;;;;;;;11.88;3.60;;;;;;;;;;4978973;28;93884;-79
2024/01/07 08:50:11;;;;;;;6.72;3.17;;;;;;;;;;4978548;28;94333;-81
2024/01/07 08:52:40;;;;;;;8.60;2.97;;;;;;;;;;4978555;28;94618;-80
2024/01/07 08:55:09;;;;;;;11.00;3.38;;;;;;;;;;4981276;28;94878;-80
2024/01/07 08:57:37;;;;;;;7.80;2.47;;;;;;;;;;4978940;28;92202;-80
2024/01/07 09:00:04;;;;;;;9.40;2.72;;;;;;;;;;4962873;28;94876;-79
2024/01/07 09:02:31;;;;;;;9.40;2.60;;;;;;;;;;4978377;28;95582;-80
2024/01/07 09:04:57;;;;;;;6.38;2.40;;;;;;;;;;4978982;28;92287;-80
2024/01/07 09:07:24;;;;;;;6.55;2.38;;;;;;;;;;4982122;28;92578;-81
2024/01/07 09:09:51;;;;;;;7.03;2.50;;;;;;;;;;4981793;28;92322;-80
2024/01/07 09:12:20;;;;;;;5.75;2.45;;;;;;;;;;4978559;28;92217;-81
2024/01/07 09:14:46;;;;;;;6.57;2.50;;;;;;;;;;4975396;28;95036;-81
2024/01/07 09:17:13;;;;;;;5.57;2.38;;;;;;;;;;4960550;28;95491;-81
2024/01/07 09:19:39;;;;;;;5.88;2.58;;;;;;;;;;4972030;28;94863;-81
2024/01/07 09:22:06;;;;;;;5.82;2.13;;;;;;;;;;5001413;28;92723;-82
2024/01/07 09:24:33;;;;;;;6.53;2.58;;;;;;;;;;4970447;28;92546;-81
2024/01/07 09:26:59;;;;;;;6.70;2.40;;;;;;;;;;4983908;28;92691;-81
2024/01/07 09:29:27;;;;;;;6.78;2.60;;;;;;;;;;4980836;28;92758;-80
2024/01/07 09:31:53;;;;;;;7.47;2.40;;;;;;;;;;4982022;28;92189;-81
2024/01/07 09:34:20;;;;;;;7.22;2.60;;;;;;;;;;4982304;28;92832;-81
2024/01/07 09:36:47;;;;;;;6.25;2.17;;;;;;;;;;4985980;28;93080;-80
2024/01/07 09:39:14;;;;;;;8.35;2.38;;;;;;;;;;4983273;28;99667;-80
2024/01/07 09:41:41;;;;;;;5.43;2.25;;;;;;;;;;4981033;28;95654;-80
2024/01/07 09:44:08;;;;;;;5.53;2.33;;;;;;;;;;4982793;28;92419;-81
2024/01/07 09:46:37;;;;;;;6.78;2.28;;;;;;;;;;4981276;28;92478;-81
2024/01/07 09:49:03;;;;;;;5.93;2.30;;;;;;;;;;4981485;28;94885;-81
2024/01/07 09:51:34;;;;;;;5.78;2.17;;;;;;;;;;4983758;28;92286;-80
2024/01/07 09:54:02;;;;;;;5.80;2.40;;;;;;;;;;4982715;28;93492;-81
2024/01/07 09:56:36;;;;;;;5.28;2.35;;;;;;;;;;4982211;28;92445;-81
2024/01/07 09:59:02;;;;;;;;;;;;;;;;;;4983933;28;91390;-81
2024/01/07 10:01:29;;;;;;;6.78;2.13;;;;;;;;;;4985938;28;113931;-81
2024/01/07 10:03:56;;;;;;;5.40;2.25;;;;;;;;;;4982684;28;92558;-80
2024/01/07 10:06:23;;;;;;;4.38;2.00;;;;;;;;;;4981036;28;94601;-79
2024/01/07 10:08:50;;;;;;;5.68;2.00;;;;;;;;;;4982956;28;93105;-79
2024/01/07 10:11:17;;;;;;;5.53;2.10;;;;;;;;;;4982154;28;92564;-79
2024/01/07 10:13:51;;;;;;;5.75;2.13;;;;;;;;;;4982765;28;92374;-79
2024/01/07 10:16:18;;;;;;;4.57;1.85;;;;;;;;;;4980517;28;94893;-80
2024/01/07 10:18:45;;;;;;;5.20;2.20;;;;;;;;;;4982381;28;92354;-79
2024/01/07 10:21:12;;;;;;;5.00;2.25;;;;;;;;;;4986557;28;92548;-79
2024/01/07 10:23:38;;;;;;;4.95;2.03;;;;;;;;;;4982041;28;91875;-80
2024/01/07 10:26:05;;;;;;;5.15;2.08;;;;;;;;;;4983342;28;92121;-80
2024/01/07 10:28:45;;;;;;;4.43;2.10;;;;;;;;;;4981303;28;99615;-80
2024/01/07 10:31:13;;;;;;;4.68;1.92;;;;;;;;;;4981318;28;94934;-81
2024/01/07 10:33:40;;;;;;;5.75;2.00;;;;;;;;;;4981046;28;97417;-82
2024/01/07 10:36:08;;;;;;;5.35;2.00;;;;;;;;;;4981942;28;95347;-81
2024/01/07 10:38:35;;;;;;;5.97;1.90;;;;;;;;;;4982879;28;92223;-80
2024/01/07 10:41:02;;;;;;;5.93;1.90;;;;;;;;;;4962139;28;94533;-81
2024/01/07 10:43:29;;;;;;;6.13;1.98;;;;;;;;;;4965005;28;94638;-82
2024/01/07 10:45:58;;;;;;;5.60;2.00;;;;;;;;;;4961915;28;94535;-82
2024/01/07 10:48:27;;;;;;;5.28;1.80;;;;;;;;;;4972296;28;92515;-79
2024/01/07 10:50:55;;;;;;;3.53;1.52;;;;;;;;;;4982086;28;92534;-82
2024/01/07 10:53:23;;;;;;;5.03;2.03;;;;;;;;;;4981839;28;95002;-79
2024/01/07 10:55:54;;;;;;;6.80;1.80;;;;;;;;;;4980372;28;95136;-81
2024/01/07 10:58:24;;;;;;;7.18;1.80;;;;;;;;;;4982106;28;92738;-80
2024/01/07 11:00:52;;;;;;;8.10;2.10;;;;;;;;;;4981913;28;93938;-80
2024/01/07 11:03:38;;;;;;;6.65;2.10;;;;;;;;;;4981274;28;92748;-81
2024/01/07 11:06:09;;;;;;;5.88;1.80;;;;;;;;;;4986257;28;92420;-78
2024/01/07 11:08:45;;;;;;;7.13;1.75;;;;;;;;;;4981045;28;92678;-81
2024/01/07 11:11:23;;;;;;;5.55;1.70;;;;;;;;;;4982098;28;92149;-80
2024/01/07 11:13:50;;;;;;;4.22;1.70;;;;;;;;;;4984537;28;92405;-80
2024/01/07 11:16:35;;;;;;;4.47;1.77;;;;;;;;;;4980821;28;95822;-81
2024/01/07 11:19:02;;;;;;;3.70;1.48;;;;;;;;;;4984370;28;92581;-81
2024/01/07 11:21:28;;;;;;;4.57;1.92;;;;;;;;;;5000069;28;94838;-80
2024/01/07 11:23:55;;;;;;;5.95;1.80;;;;;;;;;;5002929;27;92812;-81
2024/01/07 11:26:22;;;;;;;5.50;1.75;;;;;;;;;;5000391;27;92361;-82
2024/01/07 11:28:52;;;;;;;4.05;1.50;;;;;;;;;;5003830;28;92485;-82
2024/01/07 11:31:38;;;;;;;5.10;1.70;;;;;;;;;;4984638;28;98997;-81
2024/01/07 11:34:04;;;;;;;5.32;1.90;;;;;;;;;;4981673;28;92845;-82
2024/01/07 11:36:31;;;;;;;4.05;1.75;;;;;;;;;;4960846;28;94670;-81
2024/01/07 11:38:59;;;;;;;4.30;1.73;;;;;;;;;;4961856;28;91358;-82
2024/01/07 11:41:26;;;;;;;2.85;1.50;;;;;;;;;;4977510;28;92104;-81
2024/01/07 11:43:53;;;;;;;;;;;;;;;;;;4966360;28;93292;-82
2024/01/07 11:46:20;;;;;;;2.55;1.40;;;;;;;;;;4979346;28;94840;-82
2024/01/07 11:48:48;;;;;;;;;;;;;;;;;;4981044;28;95036;-81
2024/01/07 11:51:16;;;;;;;5.15;1.50;;;;;;;;;;4984460;28;114939;-82
2024/01/07 11:53:45;;;;;;;4.43;1.48;;;;;;;;;;4964572;28;94933;-82
2024/01/07 11:56:12;;;;;;;8.30;1.50;;;;;;;;;;4980661;28;93206;-82
2024/01/07 11:58:40;;;;;;;4.10;1.38;;;;;;;;;;4979778;28;92230;-80
2024/01/07 12:01:06;;;;;;;2.83;1.30;;;;;;;;;;4982316;28;92430;-81
2024/01/07 12:03:33;;;;;;;4.00;1.30;;;;;;;;;;4977734;28;92161;-80
2024/01/07 12:06:00;;;;;;;3.20;1.30;;;;;;;;;;4961205;28;92231;-81
2024/01/07 12:08:27;;;;;;;3.10;1.30;;;;;;;;;;4977094;28;95397;-82
2024/01/07 12:10:54;;;;;;;4.90;1.50;;;;;;;;;;4961350;28;95491;-81
2024/01/07 12:13:21;;;;;;;;;;;;;;;;;;4984051;28;92103;-80
2024/01/07 12:15:48;;;;;;;4.45;1.40;;;;;;;;;;4981975;28;103149;-81
2024/01/07 12:18:14;;;;;;;3.40;1.20;;;;;;;;;;4980943;28;92805;-81
2024/01/07 12:20:41;;;;;;;2.47;1.20;;;;;;;;;;4978005;28;94976;-80
2024/01/07 12:23:09;;;;;;;3.33;1.20;;;;;;;;;;4984019;28;94516;-80
2024/01/07 12:25:35;;;;;;;4.47;1.30;;;;;;;;;;5002448;27;92184;-81
2024/01/07 12:28:06;;;;;;;5.63;1.25;;;;;;;;;;4983115;28;92886;-82
2024/01/07 12:30:32;;;;;;;4.85;1.35;;;;;;;;;;4980204;28;95357;-81
2024/01/07 12:32:59;;;;;;;3.22;1.10;;;;;;;;;;4968051;28;92159;-81
2024/01/07 12:35:27;;;;;;;5.47;1.25;;;;;;;;;;4970549;28;95111;-82
2024/01/07 12:37:54;;;;;;;4.18;1.30;;;;;;;;;;4963382;28;92173;-83
2024/01/07 12:40:20;;;;;;;3.58;1.30;;;;;;;;;;4979468;28;94433;-82
2024/01/07 12:42:47;;;;;;;2.92;1.10;;;;;;;;;;4980775;28;95316;-83
2024/01/07 12:45:14;;;;;;;3.83;1.30;;;;;;;;;;4980671;28;92157;-84
2024/01/07 12:47:42;;;;;;;7.80;1.13;;;;;;;;;;4977874;28;95150;-83
2024/01/07 12:50:10;;;;;;;9.07;1.30;;;;;;;;;;4981261;28;92710;-82
2024/01/07 12:52:36;;;;;;;;;;;;;;;;;;4964999;28;91720;-80
2024/01/07 12:55:03;;;;;;;2.92;1.27;;;;;;;;;;4985749;28;92509;-81
2024/01/07 12:57:30;;;;;;;2.60;1.17;;;;;;;;;;4980682;28;92438;-81
2024/01/07 12:59:56;;;;;;;5.30;1.48;;;;;;;;;;4979317;28;94606;-82
2024/01/07 13:02:23;;;;;;;3.50;1.20;;;;;;;;;;4971893;28;94837;-82
2024/01/07 13:04:50;;;;;;;3.75;1.10;;;;;;;;;;4965375;28;92476;-82
2024/01/07 13:07:17;;;;;;;2.35;1.20;;;;;;;;;;4980241;28;92544;-82
2024/01/07 13:09:46;;;;;;;3.70;1.27;;;;;;;;;;4980733;28;92813;-81
2024/01/07 13:12:13;;;;;;;1.92;1.13;;;;;;;;;;4979898;28;92350;-82
2024/01/07 13:14:42;;;;;;;2.13;1.13;;;;;;;;;;4981125;28;96827;-82
2024/01/07 13:17:09;;;;;;;2.80;1.10;;;;;;;;;;4984076;28;91451;-81
2024/01/07 13:19:36;;;;;;;1.98;1.00;;;;;;;;;;4980047;28;93870;-81
2024/01/07 13:22:03;;;;;;;2.83;1.00;;;;;;;;;;4978495;28;93101;-82
2024/01/07 13:24:29;;;;;;;1.98;1.00;;;;;;;;;;4978237;28;95191;-81
2024/01/07 13:26:56;;;;;;;1.70;1.00;;;;;;;;;;4976889;28;94418;-82
2024/01/07 13:29:24;;;;;;;1.90;1.02;;;;;;;;;;4960377;28;95225;-81
2024/01/07 13:31:50;;;;;;;2.42;1.00;;;;;;;;;;4960145;28;92145;-81
2024/01/07 13:34:18;;;;;;;1.75;1.08;;;;;;;;;;4961416;28;92429;-81
2024/01/07 13:36:45;;;;;;;2.60;1.15;;;;;;;;;;4966043;28;95636;-82
2024/01/07 13:39:11;;;;;;;2.28;1.20;;;;;;;;;;4955201;28;92845;-82
2024/01/07 13:41:38;;;;;;;1.58;0.93;;;;;;;;;;4979786;28;94439;-82
2024/01/07 13:44:07;;;;;;;2.80;1.08;;;;;;;;;;4975221;28;92117;-81
2024/01/07 13:46:33;;;;;;;2.47;1.10;;;;;;;;;;4962245;28;95194;-83
2024/01/07 13:49:00;;;;;;;2.25;0.95;;;;;;;;;;4977978;28;95433;-82
2024/01/07 13:51:27;;;;;;;2.15;0.90;;;;;;;;;;4978656;28;92185;-82
2024/01/07 13:53:53;;;;;;;2.15;1.00;;;;;;;;;;4980819;28;92090;-82
2024/01/07 13:56:20;;;;;;;1.75;0.98;;;;;;;;;;4979650;28;93652;-82
2024/01/07 13:58:46;;;;;;;3.83;1.30;;;;;;;;;;4974733;28;92148;-82
2024/01/07 14:01:16;;;;;;;1.85;1.00;;;;;;;;;;4982297;28;92156;-81
2024/01/07 14:03:43;;;;;;;2.92;1.00;;;;;;;;;;4979539;28;92394;-83
2024/01/07 14:06:10;;;;;;;1.60;0.90;;;;;;;;;;4993582;28;92870;-83
2024/01/07 14:08:37;;;;;;;1.60;0.88;;;;;;;;;;4980468;28;92561;-83
2024/01/07 14:11:06;;;;;;;2.47;0.93;;;;;;;;;;4993649;28;94411;-83
2024/01/07 14:13:33;;;;;;;4.68;1.13;;;;;;;;;;4981987;28;95942;-81
2024/01/07 14:16:01;;;;;;;2.25;1.00;;;;;;;;;;4983614;28;92514;-83
2024/01/07 14:18:28;;;;;;;1.88;1.00;;;;;;;;;;4983366;28;92114;-83
2024/01/07 14:20:54;;;;;;;8.00;1.10;;;;;;;;;;4986174;28;92728;-83
2024/01/07 14:23:21;;;;;;;2.10;1.00;;;;;;;;;;4999531;28;92512;-83
2024/01/07 14:25:48;;;;;;;3.17;1.02;;;;;;;;;;4983768;28;92462;-83
2024/01/07 14:28:14;;;;;;;3.80;1.10;;;;;;;;;;4981893;28;95275;-83
2024/01/07 14:30:41;;;;;;;4.65;1.17;;;;;;;;;;4982664;28;91966;-84
2024/01/07 14:33:08;;;;;;;1.58;0.80;;;;;;;;;;4983878;28;92986;-83
2024/01/07 14:35:35;;;;;;;4.30;1.00;;;;;;;;;;4972860;28;92792;-82
2024/01/07 14:38:01;;;;;;;2.15;1.00;;;;;;;;;;4964283;28;94969;-82
2024/01/07 14:40:31;;;;;;;3.22;0.93;;;;;;;;;;4964833;28;96511;-82
2024/01/07 14:42:58;;;;;;;4.93;1.30;;;;;;;;;;4987130;28;92736;-82
2024/01/07 14:45:28;;;;;;;;;;;;;;;;;;4966578;28;94958;-83